sensor_id;sensor_type;location;lat;lon;timestamp;P1;durP1;ratioP1;P2;durP2;ratioP2
14486;SDS011;7329;50.866;4.366;2022-09-01T00:01:36;3.75;;;2.70;;
14486;SDS011;7329;50.866;4.366;2022-09-01T00:03:41;3.13;;;2.80;;
14486;SDS011;7329;50.866;4.366;2022-09-01T00:05:47;4.85;;;2.95;;
14486;SDS011;7329;50.866;4.366;2022-09-01T00:07:54;3.20;;;2.90;;
14486;SDS011;7329;50.866;4.366;2022-09-01T00:09:56;4.03;;;2.95;;
14486;SDS011;7329;50.866;4.366;2022-09-01T00:11:59;3.08;;;2.78;;
14486;SDS011;7329;50.866;4.366;2022-09-01T00:14:02;3.47;;;3.00;;
14486;SDS011;7329;50.866;4.366;2022-09-01T00:16:06;3.65;;;2.72;;
14486;SDS011;7329;50.866;4.366;2022-09-01T00:18:11;3.63;;;3.13;;
14486;SDS011;7329;50.866;4.366;2022-09-01T00:20:15;3.85;;;2.95;;
14486;SDS011;7329;50.866;4.366;2022-09-01T00:22:18;3.20;;;2.90;;
14486;SDS011;7329;50.866;4.366;2022-09-01T00:24:21;3.22;;;2.70;;
14486;SDS011;7329;50.866;4.366;2022-09-01T00:26:25;3.92;;;2.90;;
14486;SDS011;7329;50.866;4.366;2022-09-01T00:28:28;3.33;;;2.92;;
14486;SDS011;7329;50.866;4.366;2022-09-01T00:30:32;3.97;;;3.10;;
14486;SDS011;7329;50.866;4.366;2022-09-01T00:32:36;2.97;;;2.70;;
14486;SDS011;7329;50.866;4.366;2022-09-01T00:34:38;3.40;;;2.72;;
14486;SDS011;7329;50.866;4.366;2022-09-01T00:36:40;4.20;;;2.85;;
14486;SDS011;7329;50.866;4.366;2022-09-01T00:38:44;3.60;;;2.90;;
14486;SDS011;7329;50.866;4.366;2022-09-01T00:40:47;4.05;;;2.53;;
14486;SDS011;7329;50.866;4.366;2022-09-01T00:42:49;3.85;;;2.72;;
14486;SDS011;7329;50.866;4.366;2022-09-01T00:44:53;4.32;;;3.28;;
14486;SDS011;7329;50.866;4.366;2022-09-01T00:46:55;3.20;;;2.90;;
14486;SDS011;7329;50.866;4.366;2022-09-01T00:49:00;5.13;;;3.05;;
14486;SDS011;7329;50.866;4.366;2022-09-01T00:51:05;4.75;;;2.88;;
14486;SDS011;7329;50.866;4.366;2022-09-01T00:53:09;4.50;;;3.28;;
14486;SDS011;7329;50.866;4.366;2022-09-01T00:55:15;2.72;;;2.50;;
14486;SDS011;7329;50.866;4.366;2022-09-01T00:57:21;3.28;;;2.78;;
14486;SDS011;7329;50.866;4.366;2022-09-01T00:59:24;3.38;;;2.70;;
14486;SDS011;7329;50.866;4.366;2022-09-01T01:01:28;2.90;;;2.42;;
14486;SDS011;7329;50.866;4.366;2022-09-01T01:03:30;3.90;;;2.88;;
14486;SDS011;7329;50.866;4.366;2022-09-01T01:05:33;3.20;;;2.70;;
14486;SDS011;7329;50.866;4.366;2022-09-01T01:07:39;3.88;;;2.80;;
14486;SDS011;7329;50.866;4.366;2022-09-01T01:09:43;3.97;;;2.75;;
14486;SDS011;7329;50.866;4.366;2022-09-01T01:11:48;3.70;;;2.97;;
14486;SDS011;7329;50.866;4.366;2022-09-01T01:13:53;2.78;;;2.50;;
14486;SDS011;7329;50.866;4.366;2022-09-01T01:15:58;2.70;;;2.50;;
14486;SDS011;7329;50.866;4.366;2022-09-01T01:18:01;6.05;;;2.72;;
14486;SDS011;7329;50.866;4.366;2022-09-01T01:20:05;2.70;;;2.50;;
14486;SDS011;7329;50.866;4.366;2022-09-01T01:22:31;3.42;;;2.88;;
14486;SDS011;7329;50.866;4.366;2022-09-01T01:24:59;2.97;;;2.63;;
14486;SDS011;7329;50.866;4.366;2022-09-01T01:27:01;5.18;;;2.60;;
14486;SDS011;7329;50.866;4.366;2022-09-01T01:29:04;3.10;;;2.35;;
14486;SDS011;7329;50.866;4.366;2022-09-01T01:31:10;3.75;;;2.80;;
14486;SDS011;7329;50.866;4.366;2022-09-01T01:33:13;3.50;;;2.65;;
14486;SDS011;7329;50.866;4.366;2022-09-01T01:35:16;3.13;;;2.60;;
14486;SDS011;7329;50.866;4.366;2022-09-01T01:37:21;2.63;;;2.42;;
14486;SDS011;7329;50.866;4.366;2022-09-01T01:39:24;4.18;;;3.13;;
14486;SDS011;7329;50.866;4.366;2022-09-01T01:41:28;5.45;;;3.10;;
14486;SDS011;7329;50.866;4.366;2022-09-01T01:43:32;3.38;;;2.55;;
14486;SDS011;7329;50.866;4.366;2022-09-01T01:45:35;3.80;;;3.00;;
14486;SDS011;7329;50.866;4.366;2022-09-01T01:47:37;2.78;;;2.47;;
14486;SDS011;7329;50.866;4.366;2022-09-01T01:49:39;3.10;;;2.80;;
14486;SDS011;7329;50.866;4.366;2022-09-01T01:51:43;3.53;;;3.00;;
14486;SDS011;7329;50.866;4.366;2022-09-01T01:53:46;2.85;;;2.65;;
14486;SDS011;7329;50.866;4.366;2022-09-01T01:55:52;3.20;;;2.65;;
14486;SDS011;7329;50.866;4.366;2022-09-01T01:57:56;4.07;;;2.72;;
14486;SDS011;7329;50.866;4.366;2022-09-01T01:59:58;3.17;;;2.80;;
14486;SDS011;7329;50.866;4.366;2022-09-01T02:02:01;3.05;;;2.75;;
14486;SDS011;7329;50.866;4.366;2022-09-01T02:04:09;3.20;;;2.50;;
14486;SDS011;7329;50.866;4.366;2022-09-01T02:06:14;3.30;;;2.65;;
14486;SDS011;7329;50.866;4.366;2022-09-01T02:08:20;3.50;;;2.58;;
14486;SDS011;7329;50.866;4.366;2022-09-01T02:10:26;3.42;;;2.88;;
14486;SDS011;7329;50.866;4.366;2022-09-01T02:12:31;3.15;;;2.40;;
14486;SDS011;7329;50.866;4.366;2022-09-01T02:14:35;2.95;;;2.60;;
14486;SDS011;7329;50.866;4.366;2022-09-01T02:16:38;2.40;;;2.20;;
14486;SDS011;7329;50.866;4.366;2022-09-01T02:18:42;3.35;;;2.60;;
14486;SDS011;7329;50.866;4.366;2022-09-01T02:20:47;3.05;;;2.35;;
14486;SDS011;7329;50.866;4.366;2022-09-01T02:22:50;2.55;;;2.28;;
14486;SDS011;7329;50.866;4.366;2022-09-01T02:24:54;3.63;;;2.70;;
14486;SDS011;7329;50.866;4.366;2022-09-01T02:26:57;2.63;;;2.33;;
14486;SDS011;7329;50.866;4.366;2022-09-01T02:29:01;3.60;;;2.88;;
14486;SDS011;7329;50.866;4.366;2022-09-01T02:31:06;3.33;;;2.97;;
14486;SDS011;7329;50.866;4.366;2022-09-01T02:33:10;3.05;;;2.50;;
14486;SDS011;7329;50.866;4.366;2022-09-01T02:35:18;3.58;;;2.17;;
14486;SDS011;7329;50.866;4.366;2022-09-01T02:37:20;2.60;;;2.40;;
14486;SDS011;7329;50.866;4.366;2022-09-01T02:39:25;3.00;;;2.70;;
14486;SDS011;7329;50.866;4.366;2022-09-01T02:41:29;2.30;;;2.10;;
14486;SDS011;7329;50.866;4.366;2022-09-01T02:43:33;2.67;;;2.13;;
14486;SDS011;7329;50.866;4.366;2022-09-01T02:45:36;3.00;;;2.40;;
14486;SDS011;7329;50.866;4.366;2022-09-01T02:47:40;2.67;;;2.45;;
14486;SDS011;7329;50.866;4.366;2022-09-01T02:49:46;4.07;;;2.60;;
14486;SDS011;7329;50.866;4.366;2022-09-01T02:51:49;3.20;;;2.58;;
14486;SDS011;7329;50.866;4.366;2022-09-01T02:53:53;2.60;;;2.40;;
14486;SDS011;7329;50.866;4.366;2022-09-01T02:55:56;3.40;;;2.42;;
14486;SDS011;7329;50.866;4.366;2022-09-01T02:57:58;3.55;;;2.80;;
14486;SDS011;7329;50.866;4.366;2022-09-01T03:00:03;2.90;;;2.55;;
14486;SDS011;7329;50.866;4.366;2022-09-01T03:02:20;3.28;;;2.38;;
14486;SDS011;7329;50.866;4.366;2022-09-01T03:04:24;2.80;;;2.40;;
14486;SDS011;7329;50.866;4.366;2022-09-01T03:06:28;2.72;;;2.28;;
14486;SDS011;7329;50.866;4.366;2022-09-01T03:08:33;2.97;;;2.67;;
14486;SDS011;7329;50.866;4.366;2022-09-01T03:10:39;2.53;;;2.30;;
14486;SDS011;7329;50.866;4.366;2022-09-01T03:12:44;3.10;;;2.50;;
14486;SDS011;7329;50.866;4.366;2022-09-01T03:14:46;2.92;;;2.50;;
14486;SDS011;7329;50.866;4.366;2022-09-01T03:16:48;2.90;;;2.50;;
14486;SDS011;7329;50.866;4.366;2022-09-01T03:18:51;3.40;;;2.40;;
14486;SDS011;7329;50.866;4.366;2022-09-01T03:20:55;2.90;;;2.40;;
14486;SDS011;7329;50.866;4.366;2022-09-01T03:22:58;2.42;;;2.22;;
14486;SDS011;7329;50.866;4.366;2022-09-01T03:25:00;3.60;;;2.53;;
14486;SDS011;7329;50.866;4.366;2022-09-01T03:27:03;2.92;;;2.30;;
14486;SDS011;7329;50.866;4.366;2022-09-01T03:29:05;4.47;;;2.60;;
14486;SDS011;7329;50.866;4.366;2022-09-01T03:31:08;4.07;;;2.40;;
14486;SDS011;7329;50.866;4.366;2022-09-01T03:33:10;4.13;;;2.50;;
14486;SDS011;7329;50.866;4.366;2022-09-01T03:35:12;3.47;;;2.65;;
14486;SDS011;7329;50.866;4.366;2022-09-01T03:37:16;3.25;;;2.53;;
14486;SDS011;7329;50.866;4.366;2022-09-01T03:39:20;2.75;;;2.25;;
14486;SDS011;7329;50.866;4.366;2022-09-01T03:41:23;3.13;;;2.83;;
14486;SDS011;7329;50.866;4.366;2022-09-01T03:43:28;2.50;;;2.20;;
14486;SDS011;7329;50.866;4.366;2022-09-01T03:45:31;3.10;;;2.55;;
14486;SDS011;7329;50.866;4.366;2022-09-01T03:47:34;3.40;;;2.30;;
14486;SDS011;7329;50.866;4.366;2022-09-01T03:49:39;2.45;;;2.13;;
14486;SDS011;7329;50.866;4.366;2022-09-01T03:51:43;2.63;;;2.17;;
14486;SDS011;7329;50.866;4.366;2022-09-01T03:53:47;2.72;;;2.35;;
14486;SDS011;7329;50.866;4.366;2022-09-01T03:55:49;2.63;;;2.30;;
14486;SDS011;7329;50.866;4.366;2022-09-01T03:57:55;2.45;;;2.25;;
14486;SDS011;7329;50.866;4.366;2022-09-01T03:59:59;3.53;;;2.67;;
14486;SDS011;7329;50.866;4.366;2022-09-01T04:02:02;2.83;;;2.30;;
14486;SDS011;7329;50.866;4.366;2022-09-01T04:04:04;3.30;;;2.20;;
14486;SDS011;7329;50.866;4.366;2022-09-01T04:06:07;3.13;;;2.28;;
14486;SDS011;7329;50.866;4.366;2022-09-01T04:08:10;3.63;;;2.28;;
14486;SDS011;7329;50.866;4.366;2022-09-01T04:10:16;2.78;;;2.58;;
14486;SDS011;7329;50.866;4.366;2022-09-01T04:12:19;2.85;;;2.25;;
14486;SDS011;7329;50.866;4.366;2022-09-01T04:14:24;2.90;;;2.10;;
14486;SDS011;7329;50.866;4.366;2022-09-01T04:16:27;3.17;;;2.15;;
14486;SDS011;7329;50.866;4.366;2022-09-01T04:18:49;3.40;;;2.30;;
14486;SDS011;7329;50.866;4.366;2022-09-01T04:20:52;3.22;;;2.20;;
14486;SDS011;7329;50.866;4.366;2022-09-01T04:22:56;2.78;;;2.47;;
14486;SDS011;7329;50.866;4.366;2022-09-01T04:24:59;2.88;;;2.30;;
14486;SDS011;7329;50.866;4.366;2022-09-01T04:27:03;2.60;;;2.10;;
14486;SDS011;7329;50.866;4.366;2022-09-01T04:29:07;3.63;;;3.05;;
14486;SDS011;7329;50.866;4.366;2022-09-01T04:31:11;2.90;;;2.25;;
14486;SDS011;7329;50.866;4.366;2022-09-01T04:33:17;3.10;;;2.40;;
14486;SDS011;7329;50.866;4.366;2022-09-01T04:35:19;2.55;;;2.00;;
14486;SDS011;7329;50.866;4.366;2022-09-01T04:37:32;2.75;;;2.30;;
14486;SDS011;7329;50.866;4.366;2022-09-01T04:39:35;3.80;;;2.30;;
14486;SDS011;7329;50.866;4.366;2022-09-01T04:41:39;2.60;;;2.30;;
14486;SDS011;7329;50.866;4.366;2022-09-01T04:43:45;3.85;;;2.30;;
14486;SDS011;7329;50.866;4.366;2022-09-01T04:45:48;2.80;;;2.30;;
14486;SDS011;7329;50.866;4.366;2022-09-01T04:47:51;2.78;;;2.20;;
14486;SDS011;7329;50.866;4.366;2022-09-01T04:49:54;2.63;;;2.17;;
14486;SDS011;7329;50.866;4.366;2022-09-01T04:51:57;2.65;;;2.30;;
14486;SDS011;7329;50.866;4.366;2022-09-01T04:54:00;2.35;;;2.15;;
14486;SDS011;7329;50.866;4.366;2022-09-01T04:56:03;2.67;;;2.10;;
14486;SDS011;7329;50.866;4.366;2022-09-01T04:58:07;2.50;;;2.13;;
14486;SDS011;7329;50.866;4.366;2022-09-01T05:00:12;2.67;;;2.00;;
14486;SDS011;7329;50.866;4.366;2022-09-01T05:02:21;2.47;;;2.10;;
14486;SDS011;7329;50.866;4.366;2022-09-01T05:04:27;4.07;;;2.60;;
14486;SDS011;7329;50.866;4.366;2022-09-01T05:06:33;3.17;;;2.35;;
14486;SDS011;7329;50.866;4.366;2022-09-01T05:08:38;3.00;;;2.40;;
14486;SDS011;7329;50.866;4.366;2022-09-01T05:10:43;3.83;;;2.72;;
14486;SDS011;7329;50.866;4.366;2022-09-01T05:12:46;3.03;;;2.35;;
14486;SDS011;7329;50.866;4.366;2022-09-01T05:14:51;2.88;;;2.28;;
14486;SDS011;7329;50.866;4.366;2022-09-01T05:16:56;2.97;;;2.72;;
14486;SDS011;7329;50.866;4.366;2022-09-01T05:19:00;2.92;;;2.38;;
14486;SDS011;7329;50.866;4.366;2022-09-01T05:21:03;3.25;;;2.45;;
14486;SDS011;7329;50.866;4.366;2022-09-01T05:23:10;2.75;;;2.35;;
14486;SDS011;7329;50.866;4.366;2022-09-01T05:25:13;3.05;;;2.05;;
14486;SDS011;7329;50.866;4.366;2022-09-01T05:27:16;2.47;;;2.20;;
14486;SDS011;7329;50.866;4.366;2022-09-01T05:29:18;2.95;;;2.20;;
14486;SDS011;7329;50.866;4.366;2022-09-01T05:31:21;2.65;;;2.25;;
14486;SDS011;7329;50.866;4.366;2022-09-01T05:33:25;2.95;;;2.00;;
14486;SDS011;7329;50.866;4.366;2022-09-01T05:35:28;4.57;;;2.45;;
14486;SDS011;7329;50.866;4.366;2022-09-01T05:37:30;3.08;;;2.30;;
14486;SDS011;7329;50.866;4.366;2022-09-01T05:39:33;3.95;;;2.50;;
14486;SDS011;7329;50.866;4.366;2022-09-01T05:41:37;2.30;;;2.10;;
14486;SDS011;7329;50.866;4.366;2022-09-01T05:43:40;3.47;;;2.53;;
14486;SDS011;7329;50.866;4.366;2022-09-01T05:45:46;3.47;;;2.45;;
14486;SDS011;7329;50.866;4.366;2022-09-01T05:47:49;3.78;;;2.67;;
14486;SDS011;7329;50.866;4.366;2022-09-01T05:49:54;3.35;;;2.40;;
14486;SDS011;7329;50.866;4.366;2022-09-01T05:51:57;2.80;;;2.42;;
14486;SDS011;7329;50.866;4.366;2022-09-01T05:54:00;2.72;;;2.20;;
14486;SDS011;7329;50.866;4.366;2022-09-01T05:56:05;2.90;;;2.05;;
14486;SDS011;7329;50.866;4.366;2022-09-01T05:58:09;3.83;;;2.65;;
14486;SDS011;7329;50.866;4.366;2022-09-01T06:00:13;3.83;;;2.60;;
14486;SDS011;7329;50.866;4.366;2022-09-01T06:02:17;3.88;;;2.53;;
14486;SDS011;7329;50.866;4.366;2022-09-01T06:04:21;2.70;;;2.30;;
14486;SDS011;7329;50.866;4.366;2022-09-01T06:06:27;5.32;;;2.88;;
14486;SDS011;7329;50.866;4.366;2022-09-01T06:08:31;4.53;;;2.40;;
14486;SDS011;7329;50.866;4.366;2022-09-01T06:10:34;5.05;;;2.50;;
14486;SDS011;7329;50.866;4.366;2022-09-01T06:12:39;2.72;;;2.47;;
14486;SDS011;7329;50.866;4.366;2022-09-01T06:14:42;3.17;;;1.95;;
14486;SDS011;7329;50.866;4.366;2022-09-01T06:16:45;3.55;;;2.40;;
14486;SDS011;7329;50.866;4.366;2022-09-01T06:18:48;3.17;;;2.40;;
14486;SDS011;7329;50.866;4.366;2022-09-01T06:20:52;5.38;;;2.28;;
14486;SDS011;7329;50.866;4.366;2022-09-01T06:22:57;3.13;;;2.10;;
14486;SDS011;7329;50.866;4.366;2022-09-01T06:24:59;4.47;;;2.67;;
14486;SDS011;7329;50.866;4.366;2022-09-01T06:27:01;3.25;;;2.33;;
14486;SDS011;7329;50.866;4.366;2022-09-01T06:29:09;3.70;;;2.60;;
14486;SDS011;7329;50.866;4.366;2022-09-01T06:31:14;3.97;;;2.55;;
14486;SDS011;7329;50.866;4.366;2022-09-01T06:33:16;3.40;;;2.45;;
14486;SDS011;7329;50.866;4.366;2022-09-01T06:35:22;4.65;;;3.17;;
14486;SDS011;7329;50.866;4.366;2022-09-01T06:37:28;3.70;;;2.20;;
14486;SDS011;7329;50.866;4.366;2022-09-01T06:39:33;3.92;;;2.13;;
14486;SDS011;7329;50.866;4.366;2022-09-01T06:41:35;4.72;;;2.42;;
14486;SDS011;7329;50.866;4.366;2022-09-01T06:43:39;4.13;;;2.72;;
14486;SDS011;7329;50.866;4.366;2022-09-01T06:45:42;3.95;;;2.60;;
14486;SDS011;7329;50.866;4.366;2022-09-01T06:47:49;3.80;;;2.42;;
14486;SDS011;7329;50.866;4.366;2022-09-01T06:49:52;3.53;;;2.50;;
14486;SDS011;7329;50.866;4.366;2022-09-01T06:51:58;4.03;;;2.50;;
14486;SDS011;7329;50.866;4.366;2022-09-01T06:54:02;2.90;;;2.60;;
14486;SDS011;7329;50.866;4.366;2022-09-01T06:56:08;3.88;;;2.45;;
14486;SDS011;7329;50.866;4.366;2022-09-01T06:58:13;3.97;;;2.58;;
14486;SDS011;7329;50.866;4.366;2022-09-01T07:00:16;3.50;;;2.45;;
14486;SDS011;7329;50.866;4.366;2022-09-01T07:02:20;16.95;;;4.43;;
14486;SDS011;7329;50.866;4.366;2022-09-01T07:04:23;9.55;;;3.70;;
14486;SDS011;7329;50.866;4.366;2022-09-01T07:06:25;9.88;;;4.40;;
14486;SDS011;7329;50.866;4.366;2022-09-01T07:08:29;11.77;;;4.55;;
14486;SDS011;7329;50.866;4.366;2022-09-01T07:10:39;12.07;;;4.75;;
14486;SDS011;7329;50.866;4.366;2022-09-01T07:12:47;8.50;;;4.53;;
14486;SDS011;7329;50.866;4.366;2022-09-01T07:14:50;12.05;;;5.03;;
14486;SDS011;7329;50.866;4.366;2022-09-01T07:16:54;11.77;;;4.60;;
14486;SDS011;7329;50.866;4.366;2022-09-01T07:18:57;9.40;;;5.10;;
14486;SDS011;7329;50.866;4.366;2022-09-01T07:21:04;7.18;;;4.22;;
14486;SDS011;7329;50.866;4.366;2022-09-01T07:23:07;9.10;;;4.70;;
14486;SDS011;7329;50.866;4.366;2022-09-01T07:25:10;9.38;;;4.78;;
14486;SDS011;7329;50.866;4.366;2022-09-01T07:27:13;8.98;;;4.68;;
14486;SDS011;7329;50.866;4.366;2022-09-01T07:29:17;6.82;;;4.50;;
14486;SDS011;7329;50.866;4.366;2022-09-01T07:31:22;9.95;;;4.45;;
14486;SDS011;7329;50.866;4.366;2022-09-01T07:33:27;22.67;;;5.40;;
14486;SDS011;7329;50.866;4.366;2022-09-01T07:35:31;13.05;;;5.10;;
14486;SDS011;7329;50.866;4.366;2022-09-01T07:37:38;9.57;;;4.40;;
14486;SDS011;7329;50.866;4.366;2022-09-01T07:39:42;10.13;;;5.07;;
14486;SDS011;7329;50.866;4.366;2022-09-01T07:41:47;10.23;;;4.07;;
14486;SDS011;7329;50.866;4.366;2022-09-01T07:43:54;8.45;;;4.50;;
14486;SDS011;7329;50.866;4.366;2022-09-01T07:46:02;9.95;;;4.32;;
14486;SDS011;7329;50.866;4.366;2022-09-01T07:48:06;11.38;;;4.55;;
14486;SDS011;7329;50.866;4.366;2022-09-01T07:50:10;6.78;;;4.43;;
14486;SDS011;7329;50.866;4.366;2022-09-01T07:52:14;6.28;;;3.80;;
14486;SDS011;7329;50.866;4.366;2022-09-01T07:54:19;10.57;;;4.20;;
14486;SDS011;7329;50.866;4.366;2022-09-01T07:56:24;7.80;;;4.68;;
14486;SDS011;7329;50.866;4.366;2022-09-01T07:58:28;9.25;;;3.97;;
14486;SDS011;7329;50.866;4.366;2022-09-01T08:00:32;12.50;;;4.55;;
14486;SDS011;7329;50.866;4.366;2022-09-01T08:02:44;10.20;;;4.20;;
14486;SDS011;7329;50.866;4.366;2022-09-01T08:04:47;8.18;;;4.28;;
14486;SDS011;7329;50.866;4.366;2022-09-01T08:06:51;7.10;;;3.92;;
14486;SDS011;7329;50.866;4.366;2022-09-01T08:08:54;7.53;;;3.75;;
14486;SDS011;7329;50.866;4.366;2022-09-01T08:10:58;7.00;;;3.83;;
14486;SDS011;7329;50.866;4.366;2022-09-01T08:13:01;7.95;;;4.10;;
14486;SDS011;7329;50.866;4.366;2022-09-01T08:15:04;7.30;;;3.70;;
14486;SDS011;7329;50.866;4.366;2022-09-01T08:17:10;8.77;;;3.83;;
14486;SDS011;7329;50.866;4.366;2022-09-01T08:19:17;7.20;;;4.35;;
14486;SDS011;7329;50.866;4.366;2022-09-01T08:21:20;7.85;;;3.70;;
14486;SDS011;7329;50.866;4.366;2022-09-01T08:23:24;6.45;;;3.67;;
14486;SDS011;7329;50.866;4.366;2022-09-01T08:25:31;4.88;;;3.55;;
14486;SDS011;7329;50.866;4.366;2022-09-01T08:27:35;8.20;;;3.90;;
14486;SDS011;7329;50.866;4.366;2022-09-01T08:29:41;6.15;;;3.42;;
14486;SDS011;7329;50.866;4.366;2022-09-01T08:31:45;5.70;;;3.30;;
14486;SDS011;7329;50.866;4.366;2022-09-01T08:33:48;6.65;;;3.15;;
14486;SDS011;7329;50.866;4.366;2022-09-01T08:35:52;18.67;;;4.18;;
14486;SDS011;7329;50.866;4.366;2022-09-01T08:37:54;12.63;;;3.72;;
14486;SDS011;7329;50.866;4.366;2022-09-01T08:39:57;9.25;;;3.58;;
14486;SDS011;7329;50.866;4.366;2022-09-01T08:42:03;7.10;;;3.30;;
14486;SDS011;7329;50.866;4.366;2022-09-01T08:44:19;10.52;;;3.30;;
14486;SDS011;7329;50.866;4.366;2022-09-01T08:46:36;6.47;;;3.25;;
14486;SDS011;7329;50.866;4.366;2022-09-01T08:48:43;7.38;;;3.20;;
14486;SDS011;7329;50.866;4.366;2022-09-01T08:50:52;5.88;;;3.00;;
14486;SDS011;7329;50.866;4.366;2022-09-01T08:53:01;5.50;;;2.97;;
14486;SDS011;7329;50.866;4.366;2022-09-01T08:55:15;3.83;;;2.75;;
14486;SDS011;7329;50.866;4.366;2022-09-01T08:57:22;4.45;;;2.47;;
14486;SDS011;7329;50.866;4.366;2022-09-01T08:59:29;7.05;;;2.75;;
14486;SDS011;7329;50.866;4.366;2022-09-01T09:01:35;7.47;;;2.78;;
14486;SDS011;7329;50.866;4.366;2022-09-01T09:03:45;6.40;;;2.72;;
14486;SDS011;7329;50.866;4.366;2022-09-01T09:06:08;6.20;;;3.15;;
14486;SDS011;7329;50.866;4.366;2022-09-01T09:08:24;3.15;;;2.80;;
14486;SDS011;7329;50.866;4.366;2022-09-01T09:10:42;5.20;;;2.83;;
14486;SDS011;7329;50.866;4.366;2022-09-01T09:12:59;5.13;;;2.63;;
14486;SDS011;7329;50.866;4.366;2022-09-01T09:15:16;5.95;;;2.72;;
14486;SDS011;7329;50.866;4.366;2022-09-01T09:17:31;5.85;;;2.50;;
14486;SDS011;7329;50.866;4.366;2022-09-01T09:19:36;5.05;;;2.47;;
14486;SDS011;7329;50.866;4.366;2022-09-01T09:21:44;5.07;;;2.70;;
14486;SDS011;7329;50.866;4.366;2022-09-01T09:23:49;8.70;;;2.95;;
14486;SDS011;7329;50.866;4.366;2022-09-01T09:26:03;9.45;;;2.83;;
14486;SDS011;7329;50.866;4.366;2022-09-01T09:28:05;12.63;;;3.10;;
14486;SDS011;7329;50.866;4.366;2022-09-01T09:30:10;6.25;;;3.00;;
14486;SDS011;7329;50.866;4.366;2022-09-01T09:32:14;5.63;;;2.85;;
14486;SDS011;7329;50.866;4.366;2022-09-01T09:34:28;8.70;;;3.10;;
14486;SDS011;7329;50.866;4.366;2022-09-01T09:36:33;6.57;;;2.70;;
14486;SDS011;7329;50.866;4.366;2022-09-01T09:38:39;5.18;;;2.35;;
14486;SDS011;7329;50.866;4.366;2022-09-01T09:40:52;5.18;;;2.47;;
14486;SDS011;7329;50.866;4.366;2022-09-01T09:43:02;4.07;;;2.45;;
14486;SDS011;7329;50.866;4.366;2022-09-01T09:45:13;7.53;;;3.15;;
14486;SDS011;7329;50.866;4.366;2022-09-01T09:47:36;6.88;;;2.88;;
14486;SDS011;7329;50.866;4.366;2022-09-01T09:49:47;17.17;;;3.00;;
14486;SDS011;7329;50.866;4.366;2022-09-01T09:51:51;4.82;;;2.50;;
14486;SDS011;7329;50.866;4.366;2022-09-01T09:57:08;4.47;;;2.30;;
14486;SDS011;7329;50.866;4.366;2022-09-01T09:59:17;3.40;;;2.40;;
14486;SDS011;7329;50.866;4.366;2022-09-01T10:01:27;4.22;;;2.35;;
14486;SDS011;7329;50.866;4.366;2022-09-01T10:03:34;3.35;;;2.17;;
14486;SDS011;7329;50.866;4.366;2022-09-01T10:05:41;7.15;;;2.50;;
14486;SDS011;7329;50.866;4.366;2022-09-01T10:07:46;3.25;;;2.28;;
14486;SDS011;7329;50.866;4.366;2022-09-01T10:09:49;12.52;;;2.42;;
14486;SDS011;7329;50.866;4.366;2022-09-01T10:11:53;4.10;;;2.33;;
14486;SDS011;7329;50.866;4.366;2022-09-01T10:13:58;4.93;;;2.28;;
14486;SDS011;7329;50.866;4.366;2022-09-01T10:16:01;4.30;;;2.40;;
14486;SDS011;7329;50.866;4.366;2022-09-01T10:18:05;3.22;;;2.20;;
14486;SDS011;7329;50.866;4.366;2022-09-01T10:20:12;3.25;;;2.22;;
14486;SDS011;7329;50.866;4.366;2022-09-01T10:22:17;2.95;;;2.00;;
14486;SDS011;7329;50.866;4.366;2022-09-01T10:24:22;3.53;;;2.10;;
14486;SDS011;7329;50.866;4.366;2022-09-01T10:26:34;2.15;;;1.75;;
14486;SDS011;7329;50.866;4.366;2022-09-01T10:28:43;5.25;;;2.13;;
14486;SDS011;7329;50.866;4.366;2022-09-01T10:30:52;5.55;;;2.00;;
14486;SDS011;7329;50.866;4.366;2022-09-01T10:32:57;3.47;;;2.00;;
14486;SDS011;7329;50.866;4.366;2022-09-01T10:35:01;2.78;;;1.80;;
14486;SDS011;7329;50.866;4.366;2022-09-01T10:37:04;5.00;;;1.90;;
14486;SDS011;7329;50.866;4.366;2022-09-01T10:39:15;4.10;;;2.40;;
14486;SDS011;7329;50.866;4.366;2022-09-01T10:44:09;3.20;;;1.63;;
14486;SDS011;7329;50.866;4.366;2022-09-01T10:48:45;3.40;;;1.80;;
14486;SDS011;7329;50.866;4.366;2022-09-01T10:50:50;6.57;;;1.75;;
14486;SDS011;7329;50.866;4.366;2022-09-01T10:52:58;3.25;;;1.90;;
14486;SDS011;7329;50.866;4.366;2022-09-01T10:55:05;6.53;;;1.98;;
14486;SDS011;7329;50.866;4.366;2022-09-01T10:57:09;2.65;;;1.90;;
14486;SDS011;7329;50.866;4.366;2022-09-01T10:59:24;2.22;;;1.67;;
14486;SDS011;7329;50.866;4.366;2022-09-01T11:04:05;4.50;;;2.17;;
14486;SDS011;7329;50.866;4.366;2022-09-01T11:06:09;6.35;;;2.05;;
14486;SDS011;7329;50.866;4.366;2022-09-01T11:08:42;10.00;;;2.38;;
14486;SDS011;7329;50.866;4.366;2022-09-01T11:11:00;3.58;;;1.90;;
14486;SDS011;7329;50.866;4.366;2022-09-01T11:13:23;6.25;;;2.33;;
14486;SDS011;7329;50.866;4.366;2022-09-01T11:15:37;7.53;;;2.58;;
14486;SDS011;7329;50.866;4.366;2022-09-01T11:17:53;5.25;;;2.42;;
14486;SDS011;7329;50.866;4.366;2022-09-01T11:20:00;4.63;;;1.90;;
14486;SDS011;7329;50.866;4.366;2022-09-01T11:22:12;4.13;;;2.08;;
14486;SDS011;7329;50.866;4.366;2022-09-01T11:26:47;3.50;;;2.10;;
14486;SDS011;7329;50.866;4.366;2022-09-01T11:28:50;4.57;;;2.20;;
14486;SDS011;7329;50.866;4.366;2022-09-01T11:30:53;5.45;;;1.90;;
14486;SDS011;7329;50.866;4.366;2022-09-01T11:33:02;5.82;;;2.10;;
14486;SDS011;7329;50.866;4.366;2022-09-01T11:35:16;3.22;;;1.88;;
14486;SDS011;7329;50.866;4.366;2022-09-01T11:37:22;5.80;;;1.85;;
14486;SDS011;7329;50.866;4.366;2022-09-01T11:39:29;5.80;;;2.05;;
14486;SDS011;7329;50.866;4.366;2022-09-01T11:41:51;3.20;;;1.70;;
14486;SDS011;7329;50.866;4.366;2022-09-01T11:43:57;4.20;;;1.95;;
14486;SDS011;7329;50.866;4.366;2022-09-01T11:46:02;6.18;;;2.28;;
14486;SDS011;7329;50.866;4.366;2022-09-01T11:48:12;8.52;;;1.88;;
14486;SDS011;7329;50.866;4.366;2022-09-01T11:50:18;5.18;;;1.85;;
14486;SDS011;7329;50.866;4.366;2022-09-01T11:52:22;4.03;;;1.73;;
14486;SDS011;7329;50.866;4.366;2022-09-01T11:54:31;8.05;;;2.17;;
14486;SDS011;7329;50.866;4.366;2022-09-01T11:56:39;2.17;;;1.58;;
14486;SDS011;7329;50.866;4.366;2022-09-01T11:58:42;3.55;;;1.95;;
14486;SDS011;7329;50.866;4.366;2022-09-01T12:00:45;3.78;;;2.00;;
14486;SDS011;7329;50.866;4.366;2022-09-01T12:02:48;7.90;;;2.00;;
14486;SDS011;7329;50.866;4.366;2022-09-01T12:04:54;6.18;;;2.00;;
14486;SDS011;7329;50.866;4.366;2022-09-01T12:06:59;4.75;;;1.98;;
14486;SDS011;7329;50.866;4.366;2022-09-01T12:09:03;6.97;;;2.03;;
14486;SDS011;7329;50.866;4.366;2022-09-01T12:11:07;3.88;;;1.90;;
14486;SDS011;7329;50.866;4.366;2022-09-01T12:13:16;6.30;;;1.98;;
14486;SDS011;7329;50.866;4.366;2022-09-01T12:15:22;3.20;;;1.80;;
14486;SDS011;7329;50.866;4.366;2022-09-01T12:17:26;6.20;;;2.53;;
14486;SDS011;7329;50.866;4.366;2022-09-01T12:19:30;5.20;;;2.00;;
14486;SDS011;7329;50.866;4.366;2022-09-01T12:21:34;3.45;;;2.05;;
14486;SDS011;7329;50.866;4.366;2022-09-01T12:23:41;3.25;;;1.80;;
14486;SDS011;7329;50.866;4.366;2022-09-01T12:25:44;3.08;;;1.90;;
14486;SDS011;7329;50.866;4.366;2022-09-01T12:27:47;4.85;;;2.08;;
14486;SDS011;7329;50.866;4.366;2022-09-01T12:29:50;5.05;;;2.08;;
14486;SDS011;7329;50.866;4.366;2022-09-01T12:31:54;5.25;;;1.90;;
14486;SDS011;7329;50.866;4.366;2022-09-01T12:33:57;5.07;;;2.05;;
14486;SDS011;7329;50.866;4.366;2022-09-01T12:36:13;2.83;;;1.85;;
14486;SDS011;7329;50.866;4.366;2022-09-01T12:38:25;6.00;;;1.88;;
14486;SDS011;7329;50.866;4.366;2022-09-01T12:40:32;3.85;;;1.90;;
14486;SDS011;7329;50.866;4.366;2022-09-01T12:42:35;6.85;;;2.15;;
14486;SDS011;7329;50.866;4.366;2022-09-01T12:44:45;4.38;;;2.10;;
14486;SDS011;7329;50.866;4.366;2022-09-01T12:46:50;6.70;;;2.13;;
14486;SDS011;7329;50.866;4.366;2022-09-01T12:48:52;4.93;;;2.28;;
14486;SDS011;7329;50.866;4.366;2022-09-01T12:50:55;2.88;;;2.03;;
14486;SDS011;7329;50.866;4.366;2022-09-01T12:53:00;3.22;;;1.70;;
14486;SDS011;7329;50.866;4.366;2022-09-01T12:55:16;4.15;;;1.80;;
14486;SDS011;7329;50.866;4.366;2022-09-01T12:57:25;3.15;;;1.60;;
14486;SDS011;7329;50.866;4.366;2022-09-01T12:59:30;2.60;;;1.90;;
14486;SDS011;7329;50.866;4.366;2022-09-01T13:01:32;8.93;;;2.05;;